createdAt,value
2022-11-10T00:01:40.968Z,12.30
2022-11-10T00:04:30.035Z,12.30
2022-11-10T00:07:18.860Z,12.30
2022-11-10T00:10:09.568Z,12.30
2022-11-10T00:13:03.604Z,12.30
2022-11-10T00:16:04.872Z,12.30
2022-11-10T00:18:54.104Z,12.40
2022-11-10T00:21:42.983Z,12.20
2022-11-10T00:24:32.527Z,12.30
2022-11-10T00:27:21.581Z,12.20
2022-11-10T00:30:13.778Z,12.20
2022-11-10T00:33:02.445Z,12.20
2022-11-10T00:35:51.507Z,12.20
2022-11-10T00:38:40.568Z,12.30
2022-11-10T00:41:29.820Z,12.30
2022-11-10T00:44:19.476Z,12.20
2022-11-10T00:47:10.939Z,12.20
2022-11-10T00:49:59.698Z,12.20
2022-11-10T00:52:48.653Z,12.20
2022-11-10T00:55:40.443Z,12.30
2022-11-10T00:58:29.462Z,12.30
2022-11-10T01:01:20.054Z,12.20
2022-11-10T01:04:11.788Z,12.10
2022-11-10T01:07:00.965Z,12.20
2022-11-10T01:09:49.548Z,12.10
2022-11-10T01:12:38.447Z,12.10
2022-11-10T01:15:28.137Z,12.00
2022-11-10T01:18:17.167Z,12.00
2022-11-10T01:21:09.647Z,12.00
2022-11-10T01:23:58.975Z,12.00
2022-11-10T01:26:48.059Z,12.20
2022-11-10T01:29:37.073Z,12.10
2022-11-10T01:32:25.776Z,12.10
2022-11-10T01:35:15.054Z,12.10
2022-11-10T01:38:06.658Z,12.10
2022-11-10T01:40:55.478Z,12.10
2022-11-10T01:43:44.808Z,12.10
2022-11-10T01:46:33.452Z,12.20
2022-11-10T01:49:27.312Z,12.00
2022-11-10T01:52:17.706Z,12.00
2022-11-10T01:55:09.589Z,12.00
2022-11-10T01:57:58.971Z,12.00
2022-11-10T02:00:47.598Z,12.00
2022-11-10T02:03:42.465Z,12.00
2022-11-10T02:06:33.296Z,11.90
2022-11-10T02:09:22.343Z,11.90
2022-11-10T02:12:14.197Z,11.90
2022-11-10T02:15:03.270Z,11.90
2022-11-10T02:17:52.556Z,12.00
2022-11-10T02:20:41.270Z,12.00
2022-11-10T02:23:49.103Z,12.00
2022-11-10T02:26:42.810Z,12.00
2022-11-10T02:29:31.509Z,12.00
2022-11-10T02:32:20.516Z,12.00
2022-11-10T02:35:10.295Z,12.00
2022-11-10T02:37:59.031Z,12.00
2022-11-10T02:40:52.186Z,11.90
2022-11-10T02:43:42.220Z,11.90
2022-11-10T02:46:31.016Z,11.90
2022-11-10T02:49:20.019Z,11.90
2022-11-10T02:52:09.103Z,11.90
2022-11-10T02:54:58.041Z,11.90
2022-11-10T02:57:49.803Z,12.00
2022-11-10T03:00:38.663Z,11.90
2022-11-10T03:03:27.830Z,12.00
2022-11-10T03:06:16.950Z,11.90
2022-11-10T03:09:05.787Z,11.80
2022-11-10T03:11:54.837Z,11.80
2022-11-10T03:14:46.298Z,11.80
2022-11-10T03:17:35.140Z,11.80
2022-11-10T03:20:24.160Z,11.80
2022-11-10T03:23:13.244Z,11.70
2022-11-10T03:26:02.380Z,11.70
2022-11-10T03:28:51.158Z,11.70
2022-11-10T03:31:42.754Z,11.70
2022-11-10T03:34:32.069Z,11.80
2022-11-10T03:37:20.690Z,11.70
2022-11-10T03:40:11.950Z,11.70
2022-11-10T03:43:00.802Z,11.60
2022-11-10T03:45:49.961Z,11.60
2022-11-10T03:48:41.577Z,11.70
2022-11-10T03:51:30.542Z,11.70
2022-11-10T03:54:19.502Z,11.60
2022-11-10T03:57:08.662Z,11.60
2022-11-10T03:59:57.692Z,11.50
2022-11-10T04:02:46.999Z,11.50
2022-11-10T04:05:50.688Z,11.60
2022-11-10T04:08:52.104Z,11.50
2022-11-10T04:11:53.518Z,11.60
2022-11-10T04:14:54.888Z,11.50
2022-11-10T04:17:43.639Z,11.50
2022-11-10T04:20:32.767Z,11.50
2022-11-10T04:23:34.784Z,11.50
2022-11-10T04:26:33.810Z,11.50
2022-11-10T04:29:23.718Z,11.40
2022-11-10T04:32:12.625Z,11.40
2022-11-10T04:35:01.284Z,11.60
2022-11-10T04:37:50.200Z,11.40
2022-11-10T04:40:41.595Z,11.40
2022-11-10T04:43:31.227Z,11.40
2022-11-10T04:46:26.231Z,11.40
2022-11-10T04:49:15.249Z,11.30
2022-11-10T04:52:04.221Z,11.40
2022-11-10T04:54:53.257Z,11.40
2022-11-10T04:57:45.842Z,11.30
2022-11-10T05:00:35.204Z,11.30
2022-11-10T05:03:24.144Z,11.30
2022-11-10T05:06:13.799Z,11.30
2022-11-10T05:09:02.643Z,11.30
2022-11-10T05:11:51.755Z,11.20
2022-11-10T05:14:43.354Z,11.20
2022-11-10T05:17:32.167Z,11.20
2022-11-10T05:20:21.613Z,11.20
2022-11-10T05:23:23.120Z,11.20
2022-11-10T05:26:13.969Z,11.20
2022-11-10T05:29:02.689Z,11.20
2022-11-10T05:31:54.334Z,11.20
2022-11-10T05:34:43.485Z,11.30
2022-11-10T05:37:32.442Z,11.20
2022-11-10T05:40:21.696Z,11.20
2022-11-10T05:43:10.739Z,11.10
2022-11-10T05:45:59.877Z,11.10
2022-11-10T05:48:52.887Z,11.10
2022-11-10T05:51:41.936Z,11.20
2022-11-10T05:54:30.711Z,11.10
2022-11-10T05:57:19.396Z,11.00
2022-11-10T06:00:11.215Z,11.10
2022-11-10T06:03:02.202Z,11.00
2022-11-10T06:05:53.634Z,11.00
2022-11-10T06:08:42.589Z,11.10
2022-11-10T06:11:31.563Z,11.00
2022-11-10T06:14:20.496Z,11.00
2022-11-10T06:17:09.584Z,11.00
2022-11-10T06:19:58.502Z,11.00
2022-11-10T06:23:02.299Z,10.90
2022-11-10T06:25:51.350Z,11.00
2022-11-10T06:28:40.230Z,10.90
2022-11-10T06:31:29.683Z,11.00
2022-11-10T06:34:18.507Z,10.90
2022-11-10T06:37:07.457Z,10.90
2022-11-10T06:39:59.158Z,10.90
2022-11-10T06:42:48.072Z,10.90
2022-11-10T06:45:37.170Z,10.90
2022-11-10T06:48:26.566Z,10.80
2022-11-10T06:51:15.347Z,10.90
2022-11-10T06:54:04.373Z,10.90
2022-11-10T06:56:55.948Z,10.80
2022-11-10T06:59:44.724Z,10.80
2022-11-10T07:02:33.461Z,10.80
2022-11-10T07:05:22.485Z,10.80
2022-11-10T07:08:13.753Z,10.80
2022-11-10T07:11:03.002Z,10.80
2022-11-10T07:13:54.250Z,10.80
2022-11-10T07:16:43.000Z,10.80
2022-11-10T07:19:32.736Z,10.90
2022-11-10T07:22:21.580Z,10.70
2022-11-10T07:25:11.840Z,10.70
2022-11-10T07:28:02.555Z,10.70
2022-11-10T07:30:54.165Z,10.70
2022-11-10T07:33:44.239Z,10.70
2022-11-10T07:36:33.726Z,10.70
2022-11-10T07:39:22.707Z,10.60
2022-11-10T07:42:11.693Z,10.80
2022-11-10T07:45:00.570Z,10.70
2022-11-10T07:47:53.220Z,10.80
2022-11-10T07:50:42.059Z,10.70
2022-11-10T07:53:30.879Z,10.70
2022-11-10T07:56:22.020Z,10.70
2022-11-10T07:59:11.315Z,10.70
2022-11-10T08:02:00.217Z,10.80
2022-11-10T08:04:51.659Z,10.80
2022-11-10T08:07:41.380Z,10.90
2022-11-10T08:10:30.647Z,10.80
2022-11-10T08:13:20.190Z,10.80
2022-11-10T08:16:09.806Z,10.90
2022-11-10T08:18:58.968Z,10.80
2022-11-10T08:21:50.628Z,10.90
2022-11-10T08:24:39.428Z,10.80
2022-11-10T08:27:28.415Z,10.90
2022-11-10T08:30:17.431Z,10.90
2022-11-10T08:33:07.837Z,11.00
2022-11-10T08:35:56.797Z,11.00
2022-11-10T08:38:48.044Z,11.10
2022-11-10T08:41:36.932Z,11.00
2022-11-10T08:44:26.012Z,11.10
2022-11-10T08:47:15.043Z,11.10
2022-11-10T08:50:04.093Z,11.10
2022-11-10T08:52:53.289Z,11.20
2022-11-10T08:55:46.185Z,11.20
2022-11-10T08:58:42.172Z,11.30
2022-11-10T09:01:36.005Z,11.40
2022-11-10T09:04:24.954Z,11.40
2022-11-10T09:07:13.979Z,11.40
2022-11-10T09:10:07.067Z,11.50
2022-11-10T09:13:02.466Z,11.40
2022-11-10T09:15:51.604Z,11.50
2022-11-10T09:18:40.360Z,11.50
2022-11-10T09:21:29.620Z,11.60
2022-11-10T09:24:18.246Z,11.60
2022-11-10T09:27:07.298Z,11.70
2022-11-10T09:29:59.165Z,11.70
2022-11-10T09:32:49.132Z,11.70
2022-11-10T09:35:38.236Z,11.80
2022-11-10T09:38:27.335Z,11.80
2022-11-10T09:41:18.008Z,11.90
2022-11-10T09:44:14.657Z,11.90
2022-11-10T09:47:12.355Z,11.90
2022-11-10T09:50:06.799Z,12.00
2022-11-10T09:52:56.988Z,12.10
2022-11-10T09:55:49.172Z,12.10
2022-11-10T09:58:42.285Z,12.20
2022-11-10T10:01:41.832Z,12.20
2022-11-10T10:04:59.081Z,12.30
2022-11-10T10:07:55.170Z,12.30
2022-11-10T10:10:47.477Z,12.40
2022-11-10T10:14:00.165Z,12.50
2022-11-10T10:17:01.663Z,12.50
2022-11-10T10:20:01.016Z,12.60
2022-11-10T10:23:01.567Z,12.60
2022-11-10T10:25:50.966Z,12.70
2022-11-10T10:28:42.221Z,12.70
2022-11-10T10:31:37.058Z,12.80
2022-11-10T10:34:28.876Z,12.90
2022-11-10T10:37:29.209Z,12.90
2022-11-10T10:40:20.498Z,13.00
2022-11-10T10:43:09.342Z,13.00
2022-11-10T10:46:10.773Z,13.10
2022-11-10T10:49:33.739Z,13.10
2022-11-10T10:52:26.861Z,13.20
2022-11-10T10:55:16.989Z,13.30
2022-11-10T10:58:08.379Z,13.40
2022-11-10T11:01:08.336Z,13.50
2022-11-10T11:03:57.397Z,13.60
2022-11-10T11:07:00.131Z,13.70
2022-11-10T11:09:51.436Z,13.70
2022-11-10T11:12:40.142Z,13.70
2022-11-10T11:15:31.162Z,13.70
2022-11-10T11:18:22.331Z,13.80
2022-11-10T11:21:18.641Z,13.80
2022-11-10T11:24:23.489Z,13.80
2022-11-10T11:27:24.254Z,13.80
2022-11-10T11:30:16.564Z,13.90
2022-11-10T11:33:33.129Z,14.10
2022-11-10T11:36:32.945Z,14.10
2022-11-10T11:39:46.348Z,14.10
2022-11-10T11:42:52.773Z,14.10
2022-11-10T11:45:52.380Z,14.20
2022-11-10T11:49:05.401Z,14.10
2022-11-10T11:52:05.356Z,14.20
2022-11-10T11:55:19.418Z,14.20
2022-11-10T11:58:32.156Z,14.40
2022-11-10T12:01:47.001Z,14.40
2022-11-10T12:04:48.585Z,14.40
2022-11-10T12:07:46.743Z,14.50
2022-11-10T12:10:43.163Z,14.50
2022-11-10T12:13:40.940Z,14.60
2022-11-10T12:16:32.536Z,14.70
2022-11-10T12:19:30.494Z,14.70
2022-11-10T12:22:29.030Z,14.80
2022-11-10T12:25:21.703Z,14.80
2022-11-10T12:28:16.538Z,14.90
2022-11-10T12:31:13.837Z,14.90
2022-11-10T12:34:08.814Z,14.90
2022-11-10T12:36:57.916Z,14.90
2022-11-10T12:39:55.029Z,14.90
2022-11-10T12:42:46.835Z,14.80
2022-11-10T12:45:42.240Z,14.90
2022-11-10T12:48:42.886Z,15.00
2022-11-10T12:51:37.085Z,15.10
2022-11-10T12:54:28.446Z,15.10
2022-11-10T12:57:20.499Z,15.20
2022-11-10T13:00:27.996Z,15.20
2022-11-10T13:03:27.928Z,15.00
2022-11-10T13:06:31.580Z,15.10
2022-11-10T13:09:28.217Z,15.10
2022-11-10T13:12:22.865Z,15.10
2022-11-10T13:15:47.421Z,15.10
2022-11-10T13:19:04.303Z,15.00
2022-11-10T13:22:30.936Z,15.10
2022-11-10T13:25:45.151Z,15.10
2022-11-10T13:29:05.520Z,15.10
2022-11-10T13:32:00.120Z,15.10
2022-11-10T13:34:49.282Z,15.10
2022-11-10T13:37:52.534Z,15.10
2022-11-10T13:40:44.734Z,15.20
2022-11-10T13:43:34.897Z,15.20
2022-11-10T13:46:25.459Z,15.20
2022-11-10T13:49:37.860Z,15.20
2022-11-10T13:52:37.410Z,15.20
2022-11-10T13:55:44.070Z,15.20
2022-11-10T13:58:36.744Z,15.20
2022-11-10T14:01:31.211Z,15.10
2022-11-10T14:04:43.159Z,15.10
2022-11-10T14:07:37.898Z,15.10
2022-11-10T14:10:41.947Z,15.10
2022-11-10T14:13:40.362Z,15.10
2022-11-10T14:16:32.978Z,15.10
2022-11-10T14:19:41.145Z,15.10
2022-11-10T14:22:37.269Z,15.10
2022-11-10T14:25:30.713Z,15.10
2022-11-10T14:28:31.998Z,15.10
2022-11-10T14:31:24.289Z,15.00
2022-11-10T14:34:18.281Z,15.10
2022-11-10T14:37:07.945Z,15.10
2022-11-10T14:39:59.024Z,15.10
2022-11-10T14:42:49.102Z,15.10
2022-11-10T14:45:41.326Z,15.10
2022-11-10T14:48:32.525Z,15.10
2022-11-10T14:51:22.613Z,15.00
2022-11-10T14:54:19.137Z,15.00
2022-11-10T14:57:09.086Z,15.00
2022-11-10T14:59:58.069Z,15.00
2022-11-10T15:02:49.585Z,14.90
2022-11-10T15:05:39.001Z,15.00
2022-11-10T15:08:29.253Z,14.90
2022-11-10T15:11:50.921Z,14.80
2022-11-10T15:14:45.621Z,14.90
2022-11-10T15:17:51.763Z,14.80
2022-11-10T15:20:42.471Z,14.80
2022-11-10T15:23:36.727Z,14.80
2022-11-10T15:26:27.516Z,14.70
2022-11-10T15:29:24.762Z,14.70
2022-11-10T15:32:20.048Z,14.70
2022-11-10T15:35:29.375Z,14.60
2022-11-10T15:38:35.215Z,14.60
2022-11-10T15:41:28.264Z,14.50
2022-11-10T15:44:19.281Z,14.50
2022-11-10T15:47:09.477Z,14.50
2022-11-10T15:49:58.408Z,14.50
2022-11-10T15:52:50.108Z,14.50
2022-11-10T15:55:38.862Z,14.40
2022-11-10T15:58:30.273Z,14.40
2022-11-10T16:01:20.886Z,14.40
2022-11-10T16:04:12.843Z,14.40
2022-11-10T16:07:02.026Z,14.40
2022-11-10T16:09:53.658Z,14.30
2022-11-10T16:12:42.711Z,14.30
2022-11-10T16:15:32.330Z,14.30
2022-11-10T16:18:23.331Z,14.20
2022-11-10T16:21:15.813Z,14.20
2022-11-10T16:24:04.470Z,14.20
2022-11-10T16:26:56.178Z,14.10
2022-11-10T16:29:46.095Z,14.10
2022-11-10T16:32:35.029Z,14.10
2022-11-10T16:35:24.034Z,14.10
2022-11-10T16:38:21.911Z,14.00
2022-11-10T16:41:16.479Z,14.00
2022-11-10T16:44:08.940Z,13.90
2022-11-10T16:46:58.882Z,13.90
2022-11-10T16:49:50.520Z,13.90
2022-11-10T16:52:39.727Z,13.90
2022-11-10T16:55:28.530Z,13.90
2022-11-10T16:58:17.482Z,14.00
2022-11-10T17:01:09.531Z,14.00
2022-11-10T17:04:01.640Z,13.90
2022-11-10T17:06:50.585Z,13.90
2022-11-10T17:09:39.298Z,13.90
2022-11-10T17:12:28.392Z,13.80
2022-11-10T17:15:18.422Z,13.90
2022-11-10T17:18:10.974Z,13.80
2022-11-10T17:20:59.787Z,13.80
2022-11-10T17:23:48.942Z,13.80
2022-11-10T17:26:38.052Z,13.70
2022-11-10T17:29:29.329Z,13.70
2022-11-10T17:32:21.361Z,13.70
2022-11-10T17:35:19.674Z,13.60
2022-11-10T17:38:09.003Z,13.60
2022-11-10T17:40:58.314Z,13.60
2022-11-10T17:43:48.007Z,13.60
2022-11-10T17:46:37.213Z,13.50
2022-11-10T17:49:26.243Z,13.50
2022-11-10T17:52:21.290Z,13.50
2022-11-10T17:55:11.140Z,13.50
2022-11-10T17:58:00.193Z,13.50
2022-11-10T18:00:49.660Z,13.50
2022-11-10T18:03:38.408Z,13.50
2022-11-10T18:06:27.236Z,13.40
2022-11-10T18:09:18.974Z,13.60
2022-11-10T18:12:08.059Z,13.40
2022-11-10T18:14:56.880Z,13.40
2022-11-10T18:17:46.073Z,13.40
2022-11-10T18:20:37.988Z,13.40
2022-11-10T18:23:27.112Z,13.40
2022-11-10T18:26:18.835Z,13.30
2022-11-10T18:29:07.892Z,13.40
2022-11-10T18:31:56.743Z,13.30
2022-11-10T18:34:45.717Z,13.30
2022-11-10T18:37:38.884Z,13.30
2022-11-10T18:40:27.789Z,13.20
2022-11-10T18:43:19.484Z,13.20
2022-11-10T18:46:08.671Z,13.20
2022-11-10T18:48:57.863Z,13.20
2022-11-10T18:51:47.233Z,13.20
2022-11-10T18:54:36.274Z,13.20
2022-11-10T18:57:25.202Z,13.20
2022-11-10T19:00:17.635Z,13.20
2022-11-10T19:03:06.693Z,13.20
2022-11-10T19:05:58.503Z,13.10
2022-11-10T19:08:48.819Z,13.10
2022-11-10T19:11:38.163Z,13.10
2022-11-10T19:14:27.324Z,13.10
2022-11-10T19:17:19.952Z,13.00
2022-11-10T19:20:10.451Z,13.10
2022-11-10T19:22:59.650Z,13.00
2022-11-10T19:25:48.275Z,13.00
2022-11-10T19:28:37.421Z,13.00
2022-11-10T19:31:27.414Z,13.00
2022-11-10T19:34:19.711Z,13.00
2022-11-10T19:37:08.760Z,13.00
2022-11-10T19:39:57.817Z,12.90
2022-11-10T19:42:46.875Z,12.90
2022-11-10T19:45:37.776Z,12.90
2022-11-10T19:48:26.596Z,12.90
2022-11-10T19:51:20.489Z,12.80
2022-11-10T19:54:09.366Z,12.90
2022-11-10T19:56:58.634Z,12.90
2022-11-10T19:59:47.749Z,12.80
2022-11-10T20:02:39.123Z,12.80
2022-11-10T20:05:31.596Z,12.90
2022-11-10T20:08:23.211Z,12.80
2022-11-10T20:11:14.111Z,12.80
2022-11-10T20:14:04.609Z,12.70
2022-11-10T20:16:53.269Z,12.80
2022-11-10T20:19:42.298Z,12.70
2022-11-10T20:22:31.254Z,12.70
2022-11-10T20:25:22.980Z,12.80
2022-11-10T20:28:13.987Z,12.70
2022-11-10T20:31:03.339Z,12.70
2022-11-10T20:33:52.901Z,12.70
2022-11-10T20:36:43.191Z,12.60
2022-11-10T20:39:31.972Z,12.60
2022-11-10T20:42:23.258Z,12.70
2022-11-10T20:45:12.715Z,12.60
2022-11-10T20:48:01.815Z,12.70
2022-11-10T20:50:50.920Z,12.60
2022-11-10T20:53:40.279Z,12.60
2022-11-10T20:56:30.088Z,12.60
2022-11-10T20:59:22.113Z,12.60
2022-11-10T21:02:12.059Z,12.50
2022-11-10T21:05:01.150Z,12.50
2022-11-10T21:07:50.092Z,12.40
2022-11-10T21:10:39.318Z,12.40
2022-11-10T21:13:29.090Z,12.40
2022-11-10T21:16:20.500Z,12.30
2022-11-10T21:19:09.322Z,12.40
2022-11-10T21:21:58.777Z,12.40
2022-11-10T21:24:47.624Z,12.40
2022-11-10T21:27:36.524Z,12.40
2022-11-10T21:30:28.337Z,12.30
2022-11-10T21:33:20.645Z,12.30
2022-11-10T21:36:10.965Z,12.30
2022-11-10T21:39:01.043Z,12.30
2022-11-10T21:41:50.086Z,12.30
2022-11-10T21:44:39.041Z,12.40
2022-11-10T21:47:27.763Z,12.30
2022-11-10T21:50:20.346Z,12.20
2022-11-10T21:53:10.009Z,12.20
2022-11-10T21:56:02.688Z,12.20
2022-11-10T21:58:51.479Z,12.20
2022-11-10T22:01:40.679Z,12.20
2022-11-10T22:04:29.970Z,12.20
2022-11-10T22:07:27.341Z,12.20
2022-11-10T22:10:28.753Z,12.20
2022-11-10T22:13:33.707Z,12.10
2022-11-10T22:16:38.414Z,12.10
2022-11-10T22:19:27.190Z,12.00
2022-11-10T22:22:17.072Z,12.10
2022-11-10T22:25:10.084Z,12.10
2022-11-10T22:27:59.139Z,12.10
2022-11-10T22:30:48.201Z,12.10
2022-11-10T22:33:37.835Z,12.10
2022-11-10T22:36:26.815Z,12.00
2022-11-10T22:39:16.151Z,12.10
2022-11-10T22:42:20.334Z,12.10
2022-11-10T22:45:10.868Z,12.10
2022-11-10T22:48:12.100Z,12.00
2022-11-10T22:51:02.078Z,12.10
2022-11-10T22:53:51.147Z,12.10
2022-11-10T22:56:40.297Z,12.00
2022-11-10T22:59:32.017Z,12.00
2022-11-10T23:02:21.137Z,12.00
2022-11-10T23:05:10.733Z,11.90
2022-11-10T23:07:59.778Z,11.90
2022-11-10T23:10:48.649Z,11.90
2022-11-10T23:13:38.208Z,12.00
2022-11-10T23:16:32.380Z,11.80
2022-11-10T23:19:21.286Z,11.90
2022-11-10T23:22:10.496Z,11.90
2022-11-10T23:24:59.744Z,11.90
2022-11-10T23:27:48.611Z,11.90
2022-11-10T23:30:37.498Z,11.90
2022-11-10T23:33:32.761Z,11.80
2022-11-10T23:36:23.639Z,11.80
2022-11-10T23:39:13.324Z,11.90
2022-11-10T23:42:02.160Z,11.80
2022-11-10T23:44:51.062Z,11.80
2022-11-10T23:47:40.234Z,11.80
2022-11-10T23:50:32.099Z,11.80
2022-11-10T23:53:22.697Z,11.80
2022-11-10T23:56:14.918Z,11.70
2022-11-10T23:59:05.128Z,11.80
